Time;durP1;ratioP1;P1;durP2;ratioP2;P2;SDS_P1;SDS_P2;PMS_P1;PMS_P2;Temp;Humidity;BMP_temperature;BMP_pressure;BME280_temperature;BME280_humidity;BME280_pressure;Samples;Min_cycle;Max_cycle;Signal;HPM_P1;HPM_P2
2021/11/28 00:00:18;;;;;;;11.20;5.72;;;5.30;99.90;;;;;;2071788;28;20017;-69
2021/11/28 00:01:19;;;;;;;12.90;5.70;;;5.30;99.90;;;;;;2072411;28;20743;-69
2021/11/28 00:02:21;;;;;;;9.93;5.28;;;5.30;99.90;;;;;;2072153;28;20105;-70
2021/11/28 00:03:22;;;;;;;10.73;5.07;;;5.30;99.90;;;;;;2072610;28;20385;-70
2021/11/28 00:04:23;;;;;;;8.00;5.03;;;5.30;99.90;;;;;;2072378;28;20053;-70
2021/11/28 00:05:26;;;;;;;10.07;5.30;;;5.30;99.90;;;;;;2072542;28;20121;-69
2021/11/28 00:06:28;;;;;;;10.20;5.30;;;5.30;99.90;;;;;;2072025;28;20022;-70
2021/11/28 00:10:10;;;;;;;9.55;4.88;;;5.20;99.90;;;;;;2072644;28;20386;-69
2021/11/28 00:13:32;;;;;;;8.10;4.70;;;5.10;99.90;;;;;;2072109;28;20108;-70
2021/11/28 00:14:32;;;;;;;7.35;4.65;;;5.10;99.90;;;;;;2072365;28;20030;-69
2021/11/28 00:15:34;;;;;;;8.85;4.18;;;5.10;99.90;;;;;;2071876;28;20079;-70
2021/11/28 00:16:35;;;;;;;10.02;5.07;;;5.10;99.90;;;;;;2072501;28;20048;-69
2021/11/28 00:17:36;;;;;;;6.32;4.20;;;5.10;99.90;;;;;;2072127;28;20100;-70
2021/11/28 00:18:37;;;;;;;10.77;4.93;;;5.10;99.90;;;;;;2071932;28;20069;-69
2021/11/28 00:19:38;;;;;;;8.10;4.95;;;5.10;99.90;;;;;;2072107;28;20077;-69
2021/11/28 00:20:38;;;;;;;8.88;4.65;;;5.20;99.90;;;;;;2072257;28;20026;-69
2021/11/28 00:21:39;;;;;;;9.43;4.65;;;5.20;99.90;;;;;;2072004;28;20017;-69
2021/11/28 00:22:41;;;;;;;6.25;4.35;;;5.20;99.90;;;;;;2072280;28;20057;-69
2021/11/28 00:23:42;;;;;;;7.68;4.68;;;5.20;99.90;;;;;;2072125;28;20022;-69
2021/11/28 00:24:43;;;;;;;14.98;5.00;;;5.20;99.90;;;;;;2072439;28;20053;-69
2021/11/28 00:25:44;;;;;;;11.93;4.93;;;5.10;99.90;;;;;;2072071;28;20022;-69
2021/11/28 00:26:45;;;;;;;8.02;4.72;;;5.20;99.90;;;;;;2071777;28;20062;-70
2021/11/28 00:27:47;;;;;;;8.75;4.97;;;5.20;99.90;;;;;;2072440;28;20022;-70
2021/11/28 00:28:48;;;;;;;7.20;4.43;;;5.20;99.90;;;;;;2072181;28;20380;-70
2021/11/28 00:29:49;;;;;;;9.13;4.93;;;5.20;99.90;;;;;;2071543;28;20036;-69
2021/11/28 00:30:50;;;;;;;10.30;5.32;;;5.20;99.90;;;;;;2072491;28;20032;-70
2021/11/28 00:31:51;;;;;;;9.55;5.40;;;5.10;99.90;;;;;;2072101;28;20038;-69
2021/11/28 00:32:52;;;;;;;8.65;4.38;;;5.10;99.90;;;;;;2072085;28;20390;-70
2021/11/28 00:33:52;;;;;;;8.25;4.45;;;5.10;99.90;;;;;;2072311;28;20449;-70
2021/11/28 00:34:53;;;;;;;7.40;4.15;;;5.10;99.90;;;;;;2072229;28;20028;-70
2021/11/28 00:35:53;;;;;;;6.05;4.05;;;5.10;99.90;;;;;;2071344;28;20113;-70
2021/11/28 00:36:54;;;;;;;8.93;4.57;;;5.10;99.90;;;;;;2071756;28;20037;-70
2021/11/28 00:37:55;;;;;;;8.35;4.40;;;5.10;99.90;;;;;;2071776;28;20030;-70
2021/11/28 00:38:55;;;;;;;8.63;4.28;;;5.10;99.90;;;;;;2072242;28;20057;-70
2021/11/28 00:39:56;;;;;;;7.60;4.25;;;5.10;99.90;;;;;;2071721;28;20608;-70
2021/11/28 00:40:57;;;;;;;9.20;4.45;;;5.10;99.90;;;;;;2072208;28;20379;-70
2021/11/28 00:42:00;;;;;;;7.93;5.03;;;5.10;99.90;;;;;;2071677;28;20028;-69
2021/11/28 00:43:01;;;;;;;7.72;4.57;;;5.10;99.90;;;;;;2072015;28;20038;-69
2021/11/28 00:44:02;;;;;;;12.20;4.68;;;5.10;99.90;;;;;;2071621;28;20018;-69
2021/11/28 00:45:04;;;;;;;8.20;4.13;;;5.10;99.90;;;;;;2071848;28;20026;-69
2021/11/28 00:46:04;;;;;;;7.70;4.60;;;5.10;99.90;;;;;;2072346;28;20075;-70
2021/11/28 00:47:05;;;;;;;7.57;4.38;;;5.00;99.90;;;;;;2072347;28;20034;-70
2021/11/28 00:48:05;;;;;;;10.05;4.53;;;5.00;99.90;;;;;;2071684;28;20588;-69
2021/11/28 00:49:14;;;;;;;7.60;4.43;;;5.00;99.90;;;;;;2072152;28;20093;-69
2021/11/28 00:52:19;;;;;;;8.13;4.28;;;5.00;99.90;;;;;;2071804;28;20022;-69
2021/11/28 00:53:20;;;;;;;7.15;4.63;;;4.90;99.90;;;;;;2072263;28;20033;-69
2021/11/28 00:54:20;;;;;;;6.68;4.50;;;4.90;99.90;;;;;;2071767;28;20080;-70
2021/11/28 00:55:21;;;;;;;9.38;4.05;;;4.90;99.90;;;;;;2068819;28;20116;-69
2021/11/28 00:56:22;;;;;;;6.57;3.95;;;4.90;99.90;;;;;;2071014;28;20105;-69
2021/11/28 00:57:23;;;;;;;6.82;4.30;;;4.90;99.90;;;;;;2071839;28;20034;-69
2021/11/28 00:58:26;;;;;;;8.63;4.20;;;4.90;99.90;;;;;;2079261;28;20029;-69
2021/11/28 00:59:26;;;;;;;8.00;4.40;;;4.90;99.90;;;;;;2075092;28;20442;-70
2021/11/28 01:00:27;;;;;;;8.35;3.85;;;4.80;99.90;;;;;;2072048;28;20382;-69
2021/11/28 01:01:28;;;;;;;6.60;4.45;;;4.80;99.90;;;;;;2071878;28;20049;-69
2021/11/28 01:02:29;;;;;;;9.50;4.72;;;4.80;99.90;;;;;;2071730;28;20073;-69
2021/11/28 01:03:29;;;;;;;6.78;3.95;;;4.80;99.90;;;;;;2071969;28;20026;-69
2021/11/28 01:04:30;;;;;;;6.15;4.43;;;4.80;99.90;;;;;;2071774;28;20029;-70
2021/11/28 01:05:31;;;;;;;7.30;3.72;;;4.80;99.90;;;;;;2071667;28;20026;-69
2021/11/28 01:06:31;;;;;;;6.47;3.83;;;4.80;99.90;;;;;;2071999;28;20477;-70
2021/11/28 01:07:32;;;;;;;6.63;4.30;;;4.80;99.90;;;;;;2071518;28;20037;-69
2021/11/28 01:08:33;;;;;;;7.20;4.10;;;4.80;99.90;;;;;;2071658;28;20077;-69
2021/11/28 01:09:34;;;;;;;7.40;4.28;;;4.80;99.90;;;;;;2071807;28;20528;-70
2021/11/28 01:10:35;;;;;;;7.30;4.20;;;4.80;99.90;;;;;;2071810;28;20037;-69
2021/11/28 01:11:35;;;;;;;9.55;4.45;;;4.80;99.90;;;;;;2072161;28;20064;-69
2021/11/28 01:12:37;;;;;;;7.95;4.20;;;4.70;99.90;;;;;;2071698;28;20022;-69
2021/11/28 01:13:38;;;;;;;7.32;4.25;;;4.70;99.90;;;;;;2071477;28;20161;-69
2021/11/28 01:14:39;;;;;;;9.65;4.57;;;4.70;99.90;;;;;;2072025;28;20052;-70
2021/11/28 01:15:40;;;;;;;7.35;4.13;;;4.70;99.90;;;;;;2071567;28;20472;-69
2021/11/28 01:16:44;;;;;;;7.57;4.40;;;4.70;99.90;;;;;;2071709;28;20394;-69
2021/11/28 01:17:45;;;;;;;7.55;4.68;;;4.70;99.90;;;;;;2071055;28;20040;-69
2021/11/28 01:18:48;;;;;;;8.65;4.55;;;4.70;99.90;;;;;;2071198;28;20018;-69
2021/11/28 01:19:48;;;;;;;9.52;4.97;;;4.70;99.90;;;;;;2071483;28;20681;-69
2021/11/28 01:20:49;;;;;;;7.85;4.22;;;4.70;99.90;;;;;;2071737;28;20041;-69
2021/11/28 01:21:59;;;;;;;8.07;4.80;;;4.70;99.90;;;;;;2071835;28;20029;-69
2021/11/28 01:23:00;;;;;;;9.85;4.40;;;4.70;99.90;;;;;;2064087;28;20030;-69
2021/11/28 01:24:01;;;;;;;9.95;4.65;;;4.60;99.90;;;;;;2070539;28;20030;-69
2021/11/28 01:25:02;;;;;;;11.02;5.03;;;4.70;99.90;;;;;;2071879;28;20382;-69
2021/11/28 01:26:03;;;;;;;11.45;4.85;;;4.60;99.90;;;;;;2071516;28;20057;-69
2021/11/28 01:27:10;;;;;;;8.98;5.50;;;4.70;99.90;;;;;;2071307;28;20022;-69
2021/11/28 01:28:11;;;;;;;9.32;4.32;;;4.70;99.90;;;;;;2070937;28;20073;-69
2021/11/28 01:29:12;;;;;;;7.18;4.25;;;4.60;99.90;;;;;;2071889;28;20080;-70
2021/11/28 01:30:13;;;;;;;8.63;4.22;;;4.70;99.90;;;;;;2070796;28;20552;-69
2021/11/28 01:31:14;;;;;;;6.13;4.13;;;4.70;99.90;;;;;;2070996;28;20167;-70
2021/11/28 01:32:15;;;;;;;6.47;4.35;;;4.70;99.90;;;;;;2071727;28;20038;-69
2021/11/28 01:33:16;;;;;;;5.47;4.40;;;4.70;99.90;;;;;;2071790;28;20026;-69
2021/11/28 01:34:16;;;;;;;7.53;4.63;;;4.60;99.90;;;;;;2071722;28;20030;-69
2021/11/28 01:35:18;;;;;;;8.45;4.57;;;4.70;99.90;;;;;;2071655;28;20014;-69
2021/11/28 01:36:18;;;;;;;8.25;4.53;;;4.60;99.90;;;;;;2071436;28;20036;-69
2021/11/28 01:37:19;;;;;;;6.50;4.22;;;4.70;99.90;;;;;;2071738;28;20105;-69
2021/11/28 01:38:20;;;;;;;7.38;4.85;;;4.70;99.90;;;;;;2071014;28;20084;-69
2021/11/28 01:39:21;;;;;;;10.27;4.68;;;4.70;99.90;;;;;;2071749;28;20030;-69
2021/11/28 01:40:22;;;;;;;6.20;4.60;;;4.70;99.90;;;;;;2071601;28;20029;-69
2021/11/28 01:41:23;;;;;;;9.05;4.70;;;4.70;99.90;;;;;;2071656;28;20040;-69
2021/11/28 01:42:38;;;;;;;7.45;4.50;;;4.70;99.90;;;;;;2071663;28;20025;-69
2021/11/28 01:43:39;;;;;;;7.57;4.35;;;4.70;99.90;;;;;;2071622;28;20371;-69
2021/11/28 01:44:40;;;;;;;5.82;3.92;;;4.70;99.90;;;;;;2071507;28;20044;-70
2021/11/28 01:45:41;;;;;;;5.78;4.28;;;4.70;99.90;;;;;;2070850;28;20116;-70
2021/11/28 01:46:42;;;;;;;6.43;4.55;;;4.70;99.90;;;;;;2070763;28;20049;-69
2021/11/28 01:47:43;;;;;;;9.40;5.00;;;4.70;99.90;;;;;;2071816;28;20026;-69
2021/11/28 01:48:44;;;;;;;7.57;4.82;;;4.70;99.90;;;;;;2070567;28;20101;-69
2021/11/28 01:49:44;;;;;;;10.75;5.03;;;4.70;99.90;;;;;;2071536;28;20026;-69
2021/11/28 01:50:48;;;;;;;9.07;4.95;;;4.70;99.90;;;;;;2071334;28;20060;-69
2021/11/28 01:51:50;;;;;;;7.85;5.05;;;4.70;99.90;;;;;;2062704;28;20151;-69
2021/11/28 01:52:51;;;;;;;6.63;4.60;;;4.70;99.90;;;;;;2066082;28;20045;-70
2021/11/28 01:53:53;;;;;;;7.38;5.45;;;4.70;99.90;;;;;;2071911;28;20441;-69
2021/11/28 01:54:54;;;;;;;7.32;4.90;;;4.70;99.90;;;;;;2071642;28;20465;-69
2021/11/28 01:55:56;;;;;;;6.47;4.45;;;4.70;99.90;;;;;;2071742;28;20112;-70
2021/11/28 01:56:57;;;;;;;6.85;4.47;;;4.70;99.90;;;;;;2071237;28;20525;-70
2021/11/28 01:57:59;;;;;;;10.65;5.00;;;4.70;99.90;;;;;;2070975;28;20486;-69
2021/11/28 01:58:59;;;;;;;8.52;4.95;;;4.70;99.90;;;;;;2071066;28;20382;-69
2021/11/28 02:00:03;;;;;;;7.60;4.50;;;4.70;99.90;;;;;;2071390;28;20084;-69
2021/11/28 02:01:07;;;;;;;8.30;4.78;;;4.70;99.90;;;;;;2072172;28;20032;-69
2021/11/28 02:02:08;;;;;;;7.32;4.30;;;4.80;99.90;;;;;;2071933;28;20018;-69
2021/11/28 02:03:11;;;;;;;8.73;4.75;;;4.80;99.90;;;;;;2070770;28;20033;-69
2021/11/28 02:04:15;;;;;;;6.93;4.43;;;4.80;99.90;;;;;;2070621;28;20026;-70
2021/11/28 02:05:16;;;;;;;10.80;4.80;;;4.80;99.90;;;;;;2071129;28;20018;-70
2021/11/28 02:06:19;;;;;;;7.72;4.57;;;4.80;99.90;;;;;;2071579;28;20633;-70
2021/11/28 02:07:20;;;;;;;7.78;4.82;;;4.80;99.90;;;;;;2071375;28;20030;-69
2021/11/28 02:08:21;;;;;;;7.85;5.20;;;4.80;99.90;;;;;;2071093;28;20029;-70
2021/11/28 02:09:21;;;;;;;5.68;4.25;;;4.80;99.90;;;;;;2071107;28;20514;-70
2021/11/28 02:10:23;;;;;;;11.65;5.38;;;4.80;99.90;;;;;;2071950;28;20373;-70
2021/11/28 02:11:24;;;;;;;8.88;5.20;;;4.80;99.90;;;;;;2071603;28;20046;-69
2021/11/28 02:12:29;;;;;;;9.88;5.32;;;4.80;99.90;;;;;;2071259;28;20072;-69
2021/11/28 02:13:30;;;;;;;7.90;4.85;;;4.80;99.90;;;;;;2071279;28;20033;-69
2021/11/28 02:14:31;;;;;;;10.25;5.22;;;4.80;99.90;;;;;;2070501;28;20044;-69
2021/11/28 02:15:33;;;;;;;5.45;4.65;;;4.80;99.90;;;;;;2070704;28;20104;-69
2021/11/28 02:16:33;;;;;;;7.20;4.72;;;4.80;99.90;;;;;;2071607;28;20044;-69
2021/11/28 02:17:34;;;;;;;8.95;4.78;;;4.80;99.90;;;;;;2071168;28;20129;-70
2021/11/28 02:18:35;;;;;;;7.18;5.00;;;4.80;99.90;;;;;;2071110;28;20598;-70
2021/11/28 02:19:36;;;;;;;6.45;4.20;;;4.80;99.90;;;;;;2071293;28;20072;-70
2021/11/28 02:20:42;;;;;;;6.65;4.20;;;4.80;99.90;;;;;;2070953;28;20581;-70
2021/11/28 02:21:43;;;;;;;10.65;4.40;;;4.90;99.90;;;;;;2071515;28;20018;-70
2021/11/28 02:22:44;;;;;;;5.57;4.55;;;4.90;99.90;;;;;;2071241;28;20049;-69
2021/11/28 02:23:45;;;;;;;7.22;4.57;;;4.80;99.90;;;;;;2071456;28;20370;-69
2021/11/28 02:24:46;;;;;;;6.35;4.00;;;4.90;99.90;;;;;;2071429;28;20029;-69
2021/11/28 02:25:48;;;;;;;6.45;4.25;;;4.90;99.90;;;;;;2071492;28;20104;-69
2021/11/28 02:26:49;;;;;;;7.63;4.90;;;4.90;99.90;;;;;;2068171;28;20565;-69
2021/11/28 02:27:51;;;;;;;6.47;4.50;;;4.90;99.90;;;;;;2070985;28;20438;-69
2021/11/28 02:28:51;;;;;;;5.97;4.18;;;4.90;99.90;;;;;;2070549;28;20029;-69
2021/11/28 02:29:52;;;;;;;6.90;4.30;;;4.90;99.90;;;;;;2071100;28;20481;-69
2021/11/28 02:30:53;;;;;;;5.80;4.10;;;4.90;99.90;;;;;;2071092;28;20041;-69
2021/11/28 02:31:53;;;;;;;6.60;4.35;;;4.90;99.90;;;;;;2071331;28;20056;-69
2021/11/28 02:32:56;;;;;;;6.13;3.67;;;4.80;99.90;;;;;;2070951;28;20030;-69
2021/11/28 02:33:57;;;;;;;9.00;4.30;;;4.80;99.90;;;;;;2071431;28;20470;-69
2021/11/28 02:34:57;;;;;;;4.63;3.80;;;4.80;99.90;;;;;;2071119;28;20386;-69
2021/11/28 02:35:58;;;;;;;7.07;4.25;;;4.80;99.90;;;;;;2071199;28;20034;-69
2021/11/28 02:36:59;;;;;;;7.00;3.90;;;4.80;99.90;;;;;;2070559;28;20030;-69
2021/11/28 02:38:02;;;;;;;5.93;3.78;;;4.80;99.90;;;;;;2070431;28;20038;-69
2021/11/28 02:39:03;;;;;;;7.72;4.50;;;4.80;99.90;;;;;;2071312;28;20033;-69
2021/11/28 02:40:04;;;;;;;7.32;4.32;;;4.80;99.90;;;;;;2071142;28;20022;-69
2021/11/28 02:41:05;;;;;;;6.13;3.95;;;4.80;99.90;;;;;;2071053;28;20056;-69
2021/11/28 02:42:05;;;;;;;6.40;4.38;;;4.80;99.90;;;;;;2071444;28;20037;-70
2021/11/28 02:43:06;;;;;;;9.02;4.72;;;4.80;99.90;;;;;;2070650;28;20028;-69
2021/11/28 02:44:07;;;;;;;7.35;4.45;;;4.80;99.90;;;;;;2068473;28;20038;-70
2021/11/28 02:45:10;;;;;;;7.40;4.43;;;4.80;99.90;;;;;;2067174;28;20022;-69
2021/11/28 02:46:11;;;;;;;8.27;4.20;;;4.70;99.90;;;;;;2070951;28;20072;-69
2021/11/28 02:47:11;;;;;;;6.47;4.32;;;4.70;99.90;;;;;;2071079;28;20108;-69
2021/11/28 02:48:15;;;;;;;7.35;4.32;;;4.70;99.90;;;;;;2070948;28;20076;-69
2021/11/28 02:49:16;;;;;;;6.15;4.22;;;4.70;99.90;;;;;;2071393;28;20076;-69
2021/11/28 02:50:19;;;;;;;5.85;4.15;;;4.60;99.90;;;;;;2071001;28;20018;-69
2021/11/28 02:51:20;;;;;;;8.10;4.28;;;4.70;99.90;;;;;;2068119;28;20133;-69
2021/11/28 02:52:20;;;;;;;5.68;4.40;;;4.60;99.90;;;;;;2071391;28;20033;-69
2021/11/28 02:53:21;;;;;;;6.10;3.90;;;4.60;99.90;;;;;;2071392;28;20025;-69
2021/11/28 02:54:21;;;;;;;5.03;4.10;;;4.60;99.90;;;;;;2078637;28;20032;-69
2021/11/28 02:55:40;;;;;;;5.88;3.83;;;4.60;99.90;;;;;;2070244;28;20042;-69
2021/11/28 02:56:43;;;;;;;5.55;4.53;;;4.60;99.90;;;;;;2062755;28;20089;-69
2021/11/28 02:57:43;;;;;;;6.43;4.60;;;4.50;99.90;;;;;;2066883;28;20022;-69
2021/11/28 02:58:46;;;;;;;6.55;4.43;;;4.50;99.90;;;;;;2070636;28;20029;-69
2021/11/28 02:59:47;;;;;;;5.65;4.00;;;4.50;99.90;;;;;;2071480;28;20021;-69
2021/11/28 03:00:56;;;;;;;6.82;4.57;;;4.50;99.90;;;;;;2073183;28;20490;-69
2021/11/28 03:01:57;;;;;;;6.38;4.45;;;4.40;99.90;;;;;;2074359;28;20021;-69
2021/11/28 03:02:58;;;;;;;9.27;5.10;;;4.40;99.90;;;;;;2074148;28;20405;-69
2021/11/28 03:03:59;;;;;;;8.57;5.00;;;4.40;99.90;;;;;;2074193;28;20075;-69
2021/11/28 03:04:59;;;;;;;7.82;4.80;;;4.40;99.90;;;;;;2074147;28;20455;-69
2021/11/28 03:06:00;;;;;;;8.43;5.05;;;4.40;99.90;;;;;;2073484;28;20028;-69
2021/11/28 03:07:00;;;;;;;5.85;4.00;;;4.40;99.90;;;;;;2073503;28;20105;-69
2021/11/28 03:08:01;;;;;;;7.85;4.40;;;4.30;99.90;;;;;;2074102;28;20455;-70
2021/11/28 03:09:03;;;;;;;8.00;4.93;;;4.30;99.90;;;;;;2074092;28;20045;-69
2021/11/28 03:10:04;;;;;;;6.15;3.97;;;4.30;99.90;;;;;;2073809;28;20056;-69
2021/11/28 03:11:06;;;;;;;6.53;4.68;;;4.30;99.90;;;;;;2073608;28;20022;-69
2021/11/28 03:12:07;;;;;;;8.18;4.60;;;4.30;99.90;;;;;;2071389;28;20414;-69
2021/11/28 03:13:14;;;;;;;8.35;4.90;;;4.30;99.90;;;;;;2073147;28;20030;-69
2021/11/28 03:14:15;;;;;;;7.18;4.22;;;4.30;99.90;;;;;;2074073;28;20045;-69
2021/11/28 03:15:16;;;;;;;7.15;4.05;;;4.20;99.90;;;;;;2074122;28;20037;-69
2021/11/28 03:16:22;;;;;;;8.30;5.07;;;4.20;99.90;;;;;;2074072;28;20026;-69
2021/11/28 03:17:23;;;;;;;7.78;4.28;;;4.20;99.90;;;;;;2073960;28;20033;-69
2021/11/28 03:18:26;;;;;;;6.30;4.78;;;4.20;99.90;;;;;;2073426;28;20502;-69
2021/11/28 03:19:27;;;;;;;5.97;4.47;;;4.20;99.90;;;;;;2073040;28;20025;-69
2021/11/28 03:20:30;;;;;;;7.25;4.53;;;4.20;99.90;;;;;;2073207;28;20030;-69
2021/11/28 03:21:33;;;;;;;6.72;4.20;;;4.10;99.90;;;;;;2074055;28;20420;-69
2021/11/28 03:22:34;;;;;;;6.45;4.72;;;4.10;99.90;;;;;;2066139;28;20023;-69
2021/11/28 03:23:35;;;;;;;7.63;4.45;;;4.10;99.90;;;;;;2069485;28;20064;-69
2021/11/28 03:24:36;;;;;;;10.43;5.30;;;4.10;99.90;;;;;;2074047;28;20053;-69
2021/11/28 03:25:37;;;;;;;7.57;4.57;;;4.10;99.90;;;;;;2074046;28;20111;-69
2021/11/28 03:26:40;;;;;;;7.57;5.22;;;4.10;99.90;;;;;;2071506;28;20421;-69
2021/11/28 03:27:40;;;;;;;5.38;3.97;;;4.00;99.90;;;;;;2074238;28;20034;-69
2021/11/28 03:28:45;;;;;;;6.53;4.00;;;4.00;99.90;;;;;;2073339;28;20029;-69
2021/11/28 03:29:47;;;;;;;9.18;4.65;;;4.00;99.90;;;;;;2073822;28;20042;-69
2021/11/28 03:30:48;;;;;;;6.47;4.65;;;4.00;99.90;;;;;;2073716;28;20021;-69
2021/11/28 03:31:54;;;;;;;7.10;4.75;;;4.00;99.90;;;;;;2074236;28;20072;-69
2021/11/28 03:32:54;;;;;;;9.32;4.95;;;4.00;99.90;;;;;;2073862;28;20058;-69
2021/11/28 03:33:56;;;;;;;8.25;5.45;;;3.90;99.90;;;;;;2074306;28;20549;-69
2021/11/28 03:34:56;;;;;;;5.43;4.90;;;3.90;99.90;;;;;;2073695;28;20076;-69
2021/11/28 03:35:57;;;;;;;6.93;4.82;;;3.90;99.90;;;;;;2074010;28;20065;-69
2021/11/28 03:36:59;;;;;;;5.75;4.57;;;3.90;99.90;;;;;;2073677;28;20545;-69
2021/11/28 03:38:00;;;;;;;6.78;4.40;;;3.90;99.90;;;;;;2072398;28;20034;-69
2021/11/28 03:39:03;;;;;;;5.57;3.97;;;3.80;99.90;;;;;;2075417;28;20096;-69
2021/11/28 03:40:05;;;;;;;6.63;4.68;;;3.80;99.90;;;;;;2074221;28;20414;-69
2021/11/28 03:41:06;;;;;;;7.75;4.95;;;3.80;99.90;;;;;;2078679;28;20063;-69
2021/11/28 03:42:08;;;;;;;7.13;5.00;;;3.80;99.90;;;;;;2074221;28;20105;-69
2021/11/28 03:43:08;;;;;;;5.82;5.15;;;3.70;99.90;;;;;;2074726;28;20359;-69
2021/11/28 03:44:09;;;;;;;5.72;5.00;;;3.70;99.90;;;;;;2073459;28;20100;-69
2021/11/28 03:45:12;;;;;;;7.63;5.15;;;3.70;99.90;;;;;;2073795;28;20469;-69
2021/11/28 03:46:13;;;;;;;7.43;4.95;;;3.70;99.90;;;;;;2073862;28;20058;-69
2021/11/28 03:47:14;;;;;;;7.40;5.07;;;3.70;99.90;;;;;;2077413;28;20025;-69
2021/11/28 03:48:15;;;;;;;9.95;5.85;;;3.70;99.90;;;;;;2075550;28;20026;-69
2021/11/28 03:49:16;;;;;;;5.75;4.57;;;3.60;99.90;;;;;;2073811;28;20036;-69
2021/11/28 03:50:16;;;;;;;5.90;5.13;;;3.60;99.90;;;;;;2073777;28;20022;-69
2021/11/28 03:51:17;;;;;;;7.35;5.07;;;3.60;99.90;;;;;;2073019;28;20029;-69
2021/11/28 03:52:17;;;;;;;6.75;5.35;;;3.60;99.90;;;;;;2072822;28;20032;-69
2021/11/28 03:53:18;;;;;;;8.23;4.97;;;3.60;99.90;;;;;;2073495;28;20474;-69
2021/11/28 03:54:19;;;;;;;6.95;5.18;;;3.60;99.90;;;;;;2074007;28;20026;-69
2021/11/28 03:55:22;;;;;;;10.38;5.63;;;3.50;99.90;;;;;;2073794;28;20049;-69
2021/11/28 03:56:23;;;;;;;6.50;5.80;;;3.50;99.90;;;;;;2075917;28;20033;-69
2021/11/28 03:57:24;;;;;;;8.75;6.35;;;3.50;99.90;;;;;;2073819;28;20032;-69
2021/11/28 03:58:24;;;;;;;7.85;5.72;;;3.50;99.90;;;;;;2073603;28;20022;-69
2021/11/28 03:59:25;;;;;;;8.82;5.90;;;3.50;99.90;;;;;;2073585;28;20040;-69
2021/11/28 04:00:26;;;;;;;9.00;5.88;;;3.50;99.90;;;;;;2073810;28;20022;-69
2021/11/28 04:01:26;;;;;;;9.70;5.63;;;3.50;99.90;;;;;;2073434;28;20501;-69
2021/11/28 04:02:27;;;;;;;7.43;5.55;;;3.40;99.90;;;;;;2072450;28;20022;-69
2021/11/28 04:03:27;;;;;;;7.65;5.13;;;3.40;99.90;;;;;;2072551;28;20101;-69
2021/11/28 04:04:28;;;;;;;8.93;5.85;;;3.40;99.90;;;;;;2073021;28;20180;-69
2021/11/28 04:05:29;;;;;;;9.15;6.15;;;3.40;99.90;;;;;;2072737;28;20056;-69
2021/11/28 04:06:29;;;;;;;9.73;6.03;;;3.40;99.90;;;;;;2072778;28;20048;-69
2021/11/28 04:07:31;;;;;;;8.75;6.05;;;3.30;99.90;;;;;;2073095;28;20028;-69
2021/11/28 04:08:32;;;;;;;8.43;5.88;;;3.30;99.90;;;;;;2072577;28;20104;-69
2021/11/28 04:09:33;;;;;;;8.32;6.13;;;3.30;99.90;;;;;;2071512;28;20033;-69
2021/11/28 04:10:34;;;;;;;10.98;6.18;;;3.30;99.90;;;;;;2072218;28;20084;-69
2021/11/28 04:11:35;;;;;;;10.43;6.10;;;3.30;99.90;;;;;;2071858;28;20481;-69
2021/11/28 04:12:35;;;;;;;8.00;5.57;;;3.30;99.90;;;;;;2074354;28;21097;-69
2021/11/28 04:13:36;;;;;;;9.05;6.03;;;3.20;99.90;;;;;;2079381;28;20021;-69
2021/11/28 04:14:37;;;;;;;11.95;6.78;;;3.20;99.90;;;;;;2072398;28;20018;-69
2021/11/28 04:15:37;;;;;;;11.85;6.80;;;3.20;99.90;;;;;;2072060;28;20513;-69
2021/11/28 04:16:38;;;;;;;11.68;6.72;;;3.20;99.90;;;;;;2072223;28;20060;-69
2021/11/28 04:17:39;;;;;;;8.95;6.10;;;3.20;99.90;;;;;;2072449;28;20450;-69
2021/11/28 04:18:40;;;;;;;10.07;6.70;;;3.20;99.90;;;;;;2071269;28;20022;-69
2021/11/28 04:19:41;;;;;;;11.55;6.50;;;3.20;99.90;;;;;;2071628;28;20507;-69
2021/11/28 04:20:42;;;;;;;13.57;6.55;;;3.20;99.90;;;;;;2071942;28;20029;-69
2021/11/28 04:21:44;;;;;;;8.18;5.28;;;3.20;99.90;;;;;;2072568;28;20014;-69
2021/11/28 04:22:45;;;;;;;8.43;6.30;;;3.10;99.90;;;;;;2072635;28;20030;-69
2021/11/28 04:23:46;;;;;;;10.77;6.85;;;3.10;99.90;;;;;;2072406;28;20029;-69
2021/11/28 04:24:48;;;;;;;11.80;6.45;;;3.10;99.90;;;;;;2072265;28;20478;-69
2021/11/28 04:25:48;;;;;;;12.05;7.05;;;3.10;99.90;;;;;;2072383;28;20025;-69
2021/11/28 04:26:49;;;;;;;9.88;7.00;;;3.10;99.90;;;;;;2071862;28;20033;-69
2021/11/28 04:27:50;;;;;;;7.93;5.63;;;3.10;99.90;;;;;;2072339;28;20040;-69
2021/11/28 04:28:50;;;;;;;9.43;6.03;;;3.10;99.90;;;;;;2071935;28;20026;-69
2021/11/28 04:29:51;;;;;;;10.15;6.07;;;3.10;99.90;;;;;;2071182;28;20490;-69
2021/11/28 04:30:52;;;;;;;8.70;6.18;;;3.10;99.90;;;;;;2071699;28;20029;-69
2021/11/28 04:31:52;;;;;;;10.45;6.82;;;3.20;99.90;;;;;;2071557;28;20080;-69
2021/11/28 04:32:53;;;;;;;7.72;5.38;;;3.10;99.90;;;;;;2071454;28;20045;-69
2021/11/28 04:33:54;;;;;;;9.60;6.35;;;3.10;99.90;;;;;;2072274;28;20488;-69
2021/11/28 04:34:55;;;;;;;12.73;7.15;;;3.10;99.90;;;;;;2072291;28;20394;-69
2021/11/28 04:35:55;;;;;;;12.25;7.47;;;3.10;99.90;;;;;;2071938;28;20084;-69
2021/11/28 04:36:56;;;;;;;9.77;6.40;;;3.20;99.90;;;;;;2072186;28;20049;-69
2021/11/28 04:37:57;;;;;;;11.30;7.30;;;3.20;99.90;;;;;;2072316;28;20120;-69
2021/11/28 04:38:57;;;;;;;11.88;6.53;;;3.20;99.90;;;;;;2071938;28;20020;-69
2021/11/28 04:39:58;;;;;;;13.02;7.22;;;3.20;99.90;;;;;;2072062;28;20026;-69
2021/11/28 04:40:59;;;;;;;13.35;7.20;;;3.20;99.90;;;;;;2072302;28;20033;-69
2021/11/28 04:41:59;;;;;;;11.95;7.95;;;3.20;99.90;;;;;;2071847;28;20030;-69
2021/11/28 04:43:00;;;;;;;9.25;6.55;;;3.20;99.90;;;;;;2071886;28;20029;-69
2021/11/28 04:44:01;;;;;;;9.73;6.65;;;3.20;99.90;;;;;;2072290;28;20037;-69
2021/11/28 04:45:03;;;;;;;12.48;7.00;;;3.20;99.90;;;;;;2069671;28;20025;-69
2021/11/28 04:46:04;;;;;;;12.63;6.65;;;3.20;99.90;;;;;;2079138;28;20477;-69
2021/11/28 04:47:04;;;;;;;11.00;6.97;;;3.20;99.90;;;;;;2079485;28;20017;-68
2021/11/28 04:48:06;;;;;;;9.52;7.20;;;3.20;99.90;;;;;;2071611;28;20057;-68
2021/11/28 04:49:07;;;;;;;13.48;7.70;;;3.20;99.90;;;;;;2072124;28;20025;-68
2021/11/28 04:50:11;;;;;;;10.93;6.93;;;3.20;99.90;;;;;;2072104;28;20080;-69
2021/11/28 04:51:11;;;;;;;13.27;8.30;;;3.20;99.90;;;;;;2072152;28;20026;-68
2021/11/28 04:52:12;;;;;;;13.25;7.75;;;3.20;99.90;;;;;;2072025;28;20029;-68
2021/11/28 04:53:13;;;;;;;14.25;8.13;;;3.20;99.90;;;;;;2071843;28;20026;-68
2021/11/28 04:54:15;;;;;;;11.82;7.65;;;3.20;99.90;;;;;;2071968;28;20248;-68
2021/11/28 04:55:17;;;;;;;11.45;7.82;;;3.30;99.90;;;;;;2072270;28;20518;-68
2021/11/28 04:56:17;;;;;;;14.82;7.85;;;3.30;99.90;;;;;;2071667;28;20072;-68
2021/11/28 04:57:19;;;;;;;11.15;8.30;;;3.30;99.90;;;;;;2072284;28;20064;-68
2021/11/28 04:58:20;;;;;;;10.32;7.22;;;3.30;99.90;;;;;;2071682;28;20017;-68
2021/11/28 04:59:20;;;;;;;10.48;7.70;;;3.30;99.90;;;;;;2072141;28;20025;-68
2021/11/28 05:00:24;;;;;;;9.48;7.72;;;3.30;99.90;;;;;;2071786;28;20018;-68
2021/11/28 05:01:25;;;;;;;13.15;8.27;;;3.30;99.90;;;;;;2071990;28;20030;-68
2021/11/28 05:02:26;;;;;;;14.25;8.30;;;3.40;99.90;;;;;;2072038;28;20041;-68
2021/11/28 05:03:27;;;;;;;10.63;7.10;;;3.40;99.90;;;;;;2071946;28;20026;-69
2021/11/28 05:04:27;;;;;;;10.90;6.68;;;3.30;99.90;;;;;;2071858;28;20388;-68
2021/11/28 05:05:28;;;;;;;8.38;7.20;;;3.40;99.90;;;;;;2072066;28;20022;-69
2021/11/28 05:06:29;;;;;;;12.48;7.85;;;3.40;99.90;;;;;;2071907;28;20037;-69
2021/11/28 05:07:29;;;;;;;14.85;8.55;;;3.40;99.90;;;;;;2072057;28;20018;-69
2021/11/28 05:08:30;;;;;;;12.10;7.32;;;3.40;99.90;;;;;;2071577;28;20119;-68
2021/11/28 05:09:30;;;;;;;11.57;7.97;;;3.40;99.90;;;;;;2071900;28;20064;-69
2021/11/28 05:10:31;;;;;;;12.55;7.40;;;3.40;99.90;;;;;;2071794;28;20097;-68
2021/11/28 05:11:32;;;;;;;11.73;6.45;;;3.40;99.90;;;;;;2071826;28;20092;-68
2021/11/28 05:12:33;;;;;;;11.70;7.30;;;3.40;99.90;;;;;;2071798;28;20022;-68
2021/11/28 05:13:34;;;;;;;8.38;6.82;;;3.40;99.90;;;;;;2072407;28;20545;-68
2021/11/28 05:14:34;;;;;;;10.27;6.90;;;3.40;99.90;;;;;;2072018;28;20433;-69
2021/11/28 05:15:35;;;;;;;13.05;7.65;;;3.40;99.90;;;;;;2071836;28;20022;-69
2021/11/28 05:16:38;;;;;;;10.15;7.00;;;3.50;99.90;;;;;;2071771;28;20026;-69
2021/11/28 05:17:38;;;;;;;10.82;6.70;;;3.50;99.90;;;;;;2071993;28;20017;-69
2021/11/28 05:18:39;;;;;;;11.15;7.45;;;3.50;99.90;;;;;;2071625;28;20030;-68
2021/11/28 05:19:39;;;;;;;9.90;7.32;;;3.50;99.90;;;;;;2072121;28;20451;-69
2021/11/28 05:20:40;;;;;;;12.13;7.68;;;3.50;99.90;;;;;;2071757;28;20026;-69
2021/11/28 05:21:41;;;;;;;12.32;7.80;;;3.50;99.90;;;;;;2071943;28;20048;-68
2021/11/28 05:22:42;;;;;;;8.50;6.78;;;3.50;99.90;;;;;;2071655;28;20577;-69
2021/11/28 05:23:43;;;;;;;8.65;7.15;;;3.50;99.90;;;;;;2070238;28;20434;-69
2021/11/28 05:24:46;;;;;;;11.25;7.55;;;3.50;99.90;;;;;;2071212;28;20076;-69
2021/11/28 05:25:47;;;;;;;10.00;7.80;;;3.60;99.90;;;;;;2064009;28;20022;-69
2021/11/28 05:26:47;;;;;;;11.77;7.03;;;3.60;99.90;;;;;;2069568;28;20458;-69
2021/11/28 05:27:49;;;;;;;11.80;7.72;;;3.60;99.90;;;;;;2071907;28;20192;-68
2021/11/28 05:28:50;;;;;;;11.40;6.70;;;3.60;99.90;;;;;;2071362;28;20482;-68
2021/11/28 05:29:51;;;;;;;8.63;7.18;;;3.60;99.90;;;;;;2071697;28;20389;-69